sensor_id;sensor_type;location;lat;lon;timestamp;temperature;humidity
30186;DHT22;31152;49.190;8.122;2023-06-14T00:01:56;18.60;59.90
30186;DHT22;31152;49.190;8.122;2023-06-14T00:04:23;18.60;59.90
30186;DHT22;31152;49.190;8.122;2023-06-14T00:06:55;18.60;59.90
30186;DHT22;31152;49.190;8.122;2023-06-14T00:09:23;18.60;60.10
30186;DHT22;31152;49.190;8.122;2023-06-14T00:11:50;18.60;60.00
30186;DHT22;31152;49.190;8.122;2023-06-14T00:14:21;18.60;60.20
30186;DHT22;31152;49.190;8.122;2023-06-14T00:16:48;18.60;60.00
30186;DHT22;31152;49.190;8.122;2023-06-14T00:19:15;18.60;60.20
30186;DHT22;31152;49.190;8.122;2023-06-14T00:21:43;18.60;61.50
30186;DHT22;31152;49.190;8.122;2023-06-14T00:24:12;18.50;60.90
30186;DHT22;31152;49.190;8.122;2023-06-14T00:26:39;18.40;61.50
30186;DHT22;31152;49.190;8.122;2023-06-14T00:29:10;18.40;61.40
30186;DHT22;31152;49.190;8.122;2023-06-14T00:31:40;18.40;61.50
30186;DHT22;31152;49.190;8.122;2023-06-14T00:34:10;18.40;61.90
30186;DHT22;31152;49.190;8.122;2023-06-14T00:36:39;18.40;61.60
30186;DHT22;31152;49.190;8.122;2023-06-14T00:39:05;18.40;61.40
30186;DHT22;31152;49.190;8.122;2023-06-14T00:41:36;18.40;61.30
30186;DHT22;31152;49.190;8.122;2023-06-14T00:44:05;18.40;61.00
30186;DHT22;31152;49.190;8.122;2023-06-14T00:46:34;18.50;61.10
30186;DHT22;31152;49.190;8.122;2023-06-14T00:49:03;18.40;61.20
30186;DHT22;31152;49.190;8.122;2023-06-14T00:51:33;18.40;61.20
30186;DHT22;31152;49.190;8.122;2023-06-14T00:54:00;18.40;61.30
30186;DHT22;31152;49.190;8.122;2023-06-14T00:56:27;18.40;61.40
30186;DHT22;31152;49.190;8.122;2023-06-14T00:58:56;18.40;61.60
30186;DHT22;31152;49.190;8.122;2023-06-14T01:01:23;18.40;61.80
30186;DHT22;31152;49.190;8.122;2023-06-14T01:03:50;18.40;61.70
30186;DHT22;31152;49.190;8.122;2023-06-14T01:11:32;18.40;61.10
30186;DHT22;31152;49.190;8.122;2023-06-14T01:14:07;18.40;61.20
30186;DHT22;31152;49.190;8.122;2023-06-14T01:16:34;18.40;61.00
30186;DHT22;31152;49.190;8.122;2023-06-14T01:19:03;18.40;61.00
30186;DHT22;31152;49.190;8.122;2023-06-14T01:21:32;18.40;60.70
30186;DHT22;31152;49.190;8.122;2023-06-14T01:24:09;18.50;60.60
30186;DHT22;31152;49.190;8.122;2023-06-14T01:26:38;18.40;60.80
30186;DHT22;31152;49.190;8.122;2023-06-14T01:29:14;18.50;60.60
30186;DHT22;31152;49.190;8.122;2023-06-14T01:31:44;18.50;60.50
30186;DHT22;31152;49.190;8.122;2023-06-14T01:34:12;18.50;60.80
30186;DHT22;31152;49.190;8.122;2023-06-14T01:36:41;18.50;60.90
30186;DHT22;31152;49.190;8.122;2023-06-14T01:39:14;18.50;61.30
30186;DHT22;31152;49.190;8.122;2023-06-14T01:41:45;18.40;61.30
30186;DHT22;31152;49.190;8.122;2023-06-14T01:44:14;18.40;61.60
30186;DHT22;31152;49.190;8.122;2023-06-14T01:46:43;18.40;61.60
30186;DHT22;31152;49.190;8.122;2023-06-14T01:49:13;18.30;61.80
30186;DHT22;31152;49.190;8.122;2023-06-14T01:51:40;18.30;62.30
30186;DHT22;31152;49.190;8.122;2023-06-14T01:54:07;18.20;62.70
30186;DHT22;31152;49.190;8.122;2023-06-14T01:56:34;18.20;63.40
30186;DHT22;31152;49.190;8.122;2023-06-14T01:59:01;18.10;64.00
30186;DHT22;31152;49.190;8.122;2023-06-14T02:01:33;18.10;63.00
30186;DHT22;31152;49.190;8.122;2023-06-14T02:04:01;18.00;63.20
30186;DHT22;31152;49.190;8.122;2023-06-14T02:06:28;18.00;63.40
30186;DHT22;31152;49.190;8.122;2023-06-14T02:08:55;18.00;63.70
30186;DHT22;31152;49.190;8.122;2023-06-14T02:11:22;18.00;63.80
30186;DHT22;31152;49.190;8.122;2023-06-14T02:13:49;17.90;64.50
30186;DHT22;31152;49.190;8.122;2023-06-14T02:16:17;17.80;65.60
30186;DHT22;31152;49.190;8.122;2023-06-14T02:18:44;17.80;65.60
30186;DHT22;31152;49.190;8.122;2023-06-14T02:21:11;17.70;66.20
30186;DHT22;31152;49.190;8.122;2023-06-14T02:23:40;17.60;66.20
30186;DHT22;31152;49.190;8.122;2023-06-14T02:26:06;17.40;67.50
30186;DHT22;31152;49.190;8.122;2023-06-14T02:28:34;17.40;67.80
30186;DHT22;31152;49.190;8.122;2023-06-14T02:31:02;17.30;67.40
30186;DHT22;31152;49.190;8.122;2023-06-14T02:33:28;17.30;67.60
30186;DHT22;31152;49.190;8.122;2023-06-14T02:35:55;17.30;68.10
30186;DHT22;31152;49.190;8.122;2023-06-14T02:38:22;17.20;67.90
30186;DHT22;31152;49.190;8.122;2023-06-14T02:40:49;17.20;67.30
30186;DHT22;31152;49.190;8.122;2023-06-14T02:43:16;17.20;67.10
30186;DHT22;31152;49.190;8.122;2023-06-14T02:45:44;17.20;67.50
30186;DHT22;31152;49.190;8.122;2023-06-14T02:48:11;17.20;67.30
30186;DHT22;31152;49.190;8.122;2023-06-14T02:50:38;17.30;67.10
30186;DHT22;31152;49.190;8.122;2023-06-14T02:53:09;17.30;67.00
30186;DHT22;31152;49.190;8.122;2023-06-14T02:55:37;17.30;66.60
30186;DHT22;31152;49.190;8.122;2023-06-14T02:58:06;17.30;66.40
30186;DHT22;31152;49.190;8.122;2023-06-14T03:00:36;17.30;66.30
30186;DHT22;31152;49.190;8.122;2023-06-14T03:03:05;17.30;66.10
30186;DHT22;31152;49.190;8.122;2023-06-14T03:05:44;17.30;66.00
30186;DHT22;31152;49.190;8.122;2023-06-14T03:08:14;17.30;66.20
30186;DHT22;31152;49.190;8.122;2023-06-14T03:10:43;17.40;66.20
30186;DHT22;31152;49.190;8.122;2023-06-14T03:13:10;17.30;66.20
30186;DHT22;31152;49.190;8.122;2023-06-14T03:15:37;17.30;66.30
30186;DHT22;31152;49.190;8.122;2023-06-14T03:18:05;17.30;66.40
30186;DHT22;31152;49.190;8.122;2023-06-14T03:20:32;17.30;66.50
30186;DHT22;31152;49.190;8.122;2023-06-14T03:23:02;17.30;66.30
30186;DHT22;31152;49.190;8.122;2023-06-14T03:25:30;17.30;66.50
30186;DHT22;31152;49.190;8.122;2023-06-14T03:27:57;17.30;66.50
30186;DHT22;31152;49.190;8.122;2023-06-14T03:30:23;17.30;66.60
30186;DHT22;31152;49.190;8.122;2023-06-14T03:32:50;17.30;66.60
30186;DHT22;31152;49.190;8.122;2023-06-14T03:35:23;17.40;67.50
30186;DHT22;31152;49.190;8.122;2023-06-14T03:37:49;17.30;66.80
30186;DHT22;31152;49.190;8.122;2023-06-14T03:40:19;17.30;66.90
30186;DHT22;31152;49.190;8.122;2023-06-14T03:42:55;17.30;67.10
30186;DHT22;31152;49.190;8.122;2023-06-14T03:45:22;17.30;67.30
30186;DHT22;31152;49.190;8.122;2023-06-14T03:47:48;17.20;67.50
30186;DHT22;31152;49.190;8.122;2023-06-14T03:50:17;17.20;67.60
30186;DHT22;31152;49.190;8.122;2023-06-14T03:52:47;17.20;67.80
30186;DHT22;31152;49.190;8.122;2023-06-14T03:55:15;17.20;68.00
30186;DHT22;31152;49.190;8.122;2023-06-14T03:57:45;17.20;68.20
30186;DHT22;31152;49.190;8.122;2023-06-14T04:00:14;17.20;68.10
30186;DHT22;31152;49.190;8.122;2023-06-14T04:02:41;17.20;68.00
30186;DHT22;31152;49.190;8.122;2023-06-14T04:05:10;17.20;68.30
30186;DHT22;31152;49.190;8.122;2023-06-14T04:07:37;17.20;68.40
30186;DHT22;31152;49.190;8.122;2023-06-14T04:10:07;17.20;68.70
30186;DHT22;31152;49.190;8.122;2023-06-14T04:12:37;17.20;68.70
30186;DHT22;31152;49.190;8.122;2023-06-14T04:15:04;17.30;68.60
30186;DHT22;31152;49.190;8.122;2023-06-14T04:17:46;17.30;68.60
30186;DHT22;31152;49.190;8.122;2023-06-14T04:20:15;17.30;68.60
30186;DHT22;31152;49.190;8.122;2023-06-14T04:22:43;17.30;68.60
30186;DHT22;31152;49.190;8.122;2023-06-14T04:25:13;17.30;68.60
30186;DHT22;31152;49.190;8.122;2023-06-14T04:27:40;17.30;68.70
30186;DHT22;31152;49.190;8.122;2023-06-14T04:30:08;17.40;68.70
30186;DHT22;31152;49.190;8.122;2023-06-14T04:32:35;17.40;68.50
30186;DHT22;31152;49.190;8.122;2023-06-14T04:35:07;17.40;68.50
30186;DHT22;31152;49.190;8.122;2023-06-14T04:37:34;17.50;68.70
30186;DHT22;31152;49.190;8.122;2023-06-14T04:40:01;17.50;68.20
30186;DHT22;31152;49.190;8.122;2023-06-14T04:42:31;17.60;68.10
30186;DHT22;31152;49.190;8.122;2023-06-14T04:44:58;17.60;68.10
30186;DHT22;31152;49.190;8.122;2023-06-14T04:47:27;17.70;67.80
30186;DHT22;31152;49.190;8.122;2023-06-14T04:49:59;17.70;67.50
30186;DHT22;31152;49.190;8.122;2023-06-14T04:52:27;17.80;67.30
30186;DHT22;31152;49.190;8.122;2023-06-14T04:54:56;17.90;66.90
30186;DHT22;31152;49.190;8.122;2023-06-14T04:57:23;17.90;66.90
30186;DHT22;31152;49.190;8.122;2023-06-14T04:59:52;18.00;66.40
30186;DHT22;31152;49.190;8.122;2023-06-14T05:02:25;18.10;66.10
30186;DHT22;31152;49.190;8.122;2023-06-14T05:04:53;18.10;65.90
30186;DHT22;31152;49.190;8.122;2023-06-14T05:07:20;18.20;66.10
30186;DHT22;31152;49.190;8.122;2023-06-14T05:09:50;18.20;66.10
30186;DHT22;31152;49.190;8.122;2023-06-14T05:12:17;18.20;66.20
30186;DHT22;31152;49.190;8.122;2023-06-14T05:14:48;18.30;66.70
30186;DHT22;31152;49.190;8.122;2023-06-14T05:17:14;18.30;66.20
30186;DHT22;31152;49.190;8.122;2023-06-14T05:19:43;18.40;66.20
30186;DHT22;31152;49.190;8.122;2023-06-14T05:22:10;18.40;66.00
30186;DHT22;31152;49.190;8.122;2023-06-14T05:24:37;18.60;66.00
30186;DHT22;31152;49.190;8.122;2023-06-14T05:27:04;18.60;65.90
30186;DHT22;31152;49.190;8.122;2023-06-14T05:29:32;18.70;65.60
30186;DHT22;31152;49.190;8.122;2023-06-14T05:31:59;18.80;65.30
30186;DHT22;31152;49.190;8.122;2023-06-14T05:34:26;18.80;65.20
30186;DHT22;31152;49.190;8.122;2023-06-14T05:36:53;18.80;64.90
30186;DHT22;31152;49.190;8.122;2023-06-14T05:39:19;18.90;64.70
30186;DHT22;31152;49.190;8.122;2023-06-14T05:41:46;19.00;64.70
30186;DHT22;31152;49.190;8.122;2023-06-14T05:44:16;19.00;64.70
30186;DHT22;31152;49.190;8.122;2023-06-14T05:46:43;19.10;64.20
30186;DHT22;31152;49.190;8.122;2023-06-14T05:49:12;19.10;64.30
30186;DHT22;31152;49.190;8.122;2023-06-14T05:51:39;19.20;63.90
30186;DHT22;31152;49.190;8.122;2023-06-14T05:54:06;19.20;64.00
30186;DHT22;31152;49.190;8.122;2023-06-14T05:56:33;19.20;63.90
30186;DHT22;31152;49.190;8.122;2023-06-14T05:59:00;19.20;64.10
30186;DHT22;31152;49.190;8.122;2023-06-14T06:01:26;19.30;64.40
30186;DHT22;31152;49.190;8.122;2023-06-14T06:03:54;19.30;64.40
30186;DHT22;31152;49.190;8.122;2023-06-14T06:06:23;19.40;64.20
30186;DHT22;31152;49.190;8.122;2023-06-14T06:08:50;19.40;64.70
30186;DHT22;31152;49.190;8.122;2023-06-14T06:11:17;19.50;64.80
30186;DHT22;31152;49.190;8.122;2023-06-14T06:13:44;19.60;64.60
30186;DHT22;31152;49.190;8.122;2023-06-14T06:16:10;19.70;64.50
30186;DHT22;31152;49.190;8.122;2023-06-14T06:18:37;19.90;64.00
30186;DHT22;31152;49.190;8.122;2023-06-14T06:21:05;20.00;63.60
30186;DHT22;31152;49.190;8.122;2023-06-14T06:23:32;20.10;62.90
30186;DHT22;31152;49.190;8.122;2023-06-14T06:25:59;20.20;62.20
30186;DHT22;31152;49.190;8.122;2023-06-14T06:28:26;20.30;62.40
30186;DHT22;31152;49.190;8.122;2023-06-14T06:30:52;20.30;62.20
30186;DHT22;31152;49.190;8.122;2023-06-14T06:33:20;20.40;62.30
30186;DHT22;31152;49.190;8.122;2023-06-14T06:35:50;20.40;61.70
30186;DHT22;31152;49.190;8.122;2023-06-14T06:38:16;20.50;61.90
30186;DHT22;31152;49.190;8.122;2023-06-14T06:40:45;20.50;61.80
30186;DHT22;31152;49.190;8.122;2023-06-14T06:43:15;20.60;61.60
30186;DHT22;31152;49.190;8.122;2023-06-14T06:45:43;20.60;61.00
30186;DHT22;31152;49.190;8.122;2023-06-14T06:48:10;20.70;61.20
30186;DHT22;31152;49.190;8.122;2023-06-14T06:50:39;20.70;61.40
30186;DHT22;31152;49.190;8.122;2023-06-14T06:53:06;20.80;61.70
30186;DHT22;31152;49.190;8.122;2023-06-14T06:55:33;20.80;61.90
30186;DHT22;31152;49.190;8.122;2023-06-14T06:58:00;20.90;61.20
30186;DHT22;31152;49.190;8.122;2023-06-14T07:00:31;21.00;61.20
30186;DHT22;31152;49.190;8.122;2023-06-14T07:02:58;21.10;60.90
30186;DHT22;31152;49.190;8.122;2023-06-14T07:05:25;21.20;60.20
30186;DHT22;31152;49.190;8.122;2023-06-14T07:07:56;21.20;60.40
30186;DHT22;31152;49.190;8.122;2023-06-14T07:10:24;21.30;60.40
30186;DHT22;31152;49.190;8.122;2023-06-14T07:12:51;21.40;60.60
30186;DHT22;31152;49.190;8.122;2023-06-14T07:15:18;21.40;60.20
30186;DHT22;31152;49.190;8.122;2023-06-14T07:17:45;21.50;59.90
30186;DHT22;31152;49.190;8.122;2023-06-14T07:20:13;21.60;59.80
30186;DHT22;31152;49.190;8.122;2023-06-14T07:22:41;21.60;60.20
30186;DHT22;31152;49.190;8.122;2023-06-14T07:25:11;21.80;60.30
30186;DHT22;31152;49.190;8.122;2023-06-14T07:27:46;21.80;59.20
30186;DHT22;31152;49.190;8.122;2023-06-14T07:30:13;21.90;59.30
30186;DHT22;31152;49.190;8.122;2023-06-14T07:32:42;21.90;59.40
30186;DHT22;31152;49.190;8.122;2023-06-14T07:35:09;21.90;59.50
30186;DHT22;31152;49.190;8.122;2023-06-14T07:37:36;22.10;59.40
30186;DHT22;31152;49.190;8.122;2023-06-14T07:40:06;22.10;59.20
30186;DHT22;31152;49.190;8.122;2023-06-14T07:42:36;22.10;59.20
30186;DHT22;31152;49.190;8.122;2023-06-14T07:45:06;22.30;59.50
30186;DHT22;31152;49.190;8.122;2023-06-14T07:47:33;22.30;58.90
30186;DHT22;31152;49.190;8.122;2023-06-14T07:50:00;22.40;59.10
30186;DHT22;31152;49.190;8.122;2023-06-14T07:52:27;22.50;58.80
30186;DHT22;31152;49.190;8.122;2023-06-14T07:54:54;22.60;58.60
30186;DHT22;31152;49.190;8.122;2023-06-14T07:57:23;22.60;58.50
30186;DHT22;31152;49.190;8.122;2023-06-14T07:59:52;22.70;58.30
30186;DHT22;31152;49.190;8.122;2023-06-14T08:02:22;22.80;58.30
30186;DHT22;31152;49.190;8.122;2023-06-14T08:04:49;22.80;57.70
30186;DHT22;31152;49.190;8.122;2023-06-14T08:07:16;22.80;58.10
30186;DHT22;31152;49.190;8.122;2023-06-14T08:09:42;22.80;57.80
30186;DHT22;31152;49.190;8.122;2023-06-14T08:12:09;22.80;58.10
30186;DHT22;31152;49.190;8.122;2023-06-14T08:14:37;22.90;57.90
30186;DHT22;31152;49.190;8.122;2023-06-14T08:17:06;23.00;57.50
30186;DHT22;31152;49.190;8.122;2023-06-14T08:19:33;23.00;57.80
30186;DHT22;31152;49.190;8.122;2023-06-14T08:21:59;23.10;57.90
30186;DHT22;31152;49.190;8.122;2023-06-14T08:24:26;23.20;57.50
30186;DHT22;31152;49.190;8.122;2023-06-14T08:26:54;23.30;57.20
30186;DHT22;31152;49.190;8.122;2023-06-14T08:29:23;23.40;57.40
30186;DHT22;31152;49.190;8.122;2023-06-14T08:31:50;23.50;57.40
30186;DHT22;31152;49.190;8.122;2023-06-14T08:34:17;23.50;57.10
30186;DHT22;31152;49.190;8.122;2023-06-14T08:36:44;23.40;57.40
30186;DHT22;31152;49.190;8.122;2023-06-14T08:39:11;23.60;57.40
30186;DHT22;31152;49.190;8.122;2023-06-14T08:41:38;23.70;56.80
30186;DHT22;31152;49.190;8.122;2023-06-14T08:44:05;23.70;56.00
30186;DHT22;31152;49.190;8.122;2023-06-14T08:46:33;23.80;56.50
30186;DHT22;31152;49.190;8.122;2023-06-14T08:49:02;23.90;56.10
30186;DHT22;31152;49.190;8.122;2023-06-14T08:51:35;24.00;56.20
30186;DHT22;31152;49.190;8.122;2023-06-14T08:54:03;24.10;55.70
30186;DHT22;31152;49.190;8.122;2023-06-14T08:56:31;24.20;55.70
30186;DHT22;31152;49.190;8.122;2023-06-14T08:58:59;24.20;55.80
30186;DHT22;31152;49.190;8.122;2023-06-14T09:01:34;24.20;55.40
30186;DHT22;31152;49.190;8.122;2023-06-14T09:04:01;24.30;55.60
30186;DHT22;31152;49.190;8.122;2023-06-14T09:06:29;24.30;55.50
30186;DHT22;31152;49.190;8.122;2023-06-14T09:08:58;24.40;55.50
30186;DHT22;31152;49.190;8.122;2023-06-14T09:11:25;24.40;55.30
30186;DHT22;31152;49.190;8.122;2023-06-14T09:13:53;24.50;55.60
30186;DHT22;31152;49.190;8.122;2023-06-14T09:16:20;24.50;55.50
30186;DHT22;31152;49.190;8.122;2023-06-14T09:18:47;24.60;54.10
30186;DHT22;31152;49.190;8.122;2023-06-14T09:21:17;24.40;55.00
30186;DHT22;31152;49.190;8.122;2023-06-14T09:23:46;24.50;55.20
30186;DHT22;31152;49.190;8.122;2023-06-14T09:26:18;24.70;54.50
30186;DHT22;31152;49.190;8.122;2023-06-14T09:28:50;25.00;54.20
30186;DHT22;31152;49.190;8.122;2023-06-14T09:31:21;25.20;53.90
30186;DHT22;31152;49.190;8.122;2023-06-14T09:33:49;25.40;53.80
30186;DHT22;31152;49.190;8.122;2023-06-14T09:36:21;25.60;52.40
30186;DHT22;31152;49.190;8.122;2023-06-14T09:39:02;25.70;51.40
30186;DHT22;31152;49.190;8.122;2023-06-14T09:41:34;25.90;51.10
30186;DHT22;31152;49.190;8.122;2023-06-14T09:44:04;25.90;50.30
30186;DHT22;31152;49.190;8.122;2023-06-14T09:46:37;25.90;50.00
30186;DHT22;31152;49.190;8.122;2023-06-14T09:49:05;25.90;50.10
30186;DHT22;31152;49.190;8.122;2023-06-14T09:51:33;25.90;50.40
30186;DHT22;31152;49.190;8.122;2023-06-14T09:54:02;25.90;49.50
30186;DHT22;31152;49.190;8.122;2023-06-14T09:56:41;25.70;49.90
30186;DHT22;31152;49.190;8.122;2023-06-14T09:59:09;25.90;50.50
30186;DHT22;31152;49.190;8.122;2023-06-14T10:01:41;26.00;50.10
30186;DHT22;31152;49.190;8.122;2023-06-14T10:04:09;26.00;50.00
30186;DHT22;31152;49.190;8.122;2023-06-14T10:06:43;26.20;50.00
30186;DHT22;31152;49.190;8.122;2023-06-14T10:09:13;26.30;49.00
30186;DHT22;31152;49.190;8.122;2023-06-14T10:11:41;26.40;48.20
30186;DHT22;31152;49.190;8.122;2023-06-14T10:14:12;26.50;48.30
30186;DHT22;31152;49.190;8.122;2023-06-14T10:19:34;26.40;47.20
30186;DHT22;31152;49.190;8.122;2023-06-14T10:22:23;26.20;47.60
30186;DHT22;31152;49.190;8.122;2023-06-14T10:24:52;25.70;47.90
30186;DHT22;31152;49.190;8.122;2023-06-14T10:27:19;25.70;48.60
30186;DHT22;31152;49.190;8.122;2023-06-14T10:32:21;26.20;48.30
30186;DHT22;31152;49.190;8.122;2023-06-14T10:34:57;26.50;48.00
30186;DHT22;31152;49.190;8.122;2023-06-14T10:37:24;26.80;47.10
30186;DHT22;31152;49.190;8.122;2023-06-14T10:39:51;27.00;47.20
30186;DHT22;31152;49.190;8.122;2023-06-14T10:42:18;27.20;46.00
30186;DHT22;31152;49.190;8.122;2023-06-14T10:44:50;27.40;46.00
30186;DHT22;31152;49.190;8.122;2023-06-14T10:47:28;27.50;45.70
30186;DHT22;31152;49.190;8.122;2023-06-14T10:50:06;27.60;45.20
30186;DHT22;31152;49.190;8.122;2023-06-14T10:52:38;27.60;45.40
30186;DHT22;31152;49.190;8.122;2023-06-14T10:55:13;27.60;46.00
30186;DHT22;31152;49.190;8.122;2023-06-14T10:57:46;27.40;45.90
30186;DHT22;31152;49.190;8.122;2023-06-14T11:00:21;27.40;45.70
30186;DHT22;31152;49.190;8.122;2023-06-14T11:03:11;27.60;46.10
30186;DHT22;31152;49.190;8.122;2023-06-14T11:05:51;27.90;45.00
30186;DHT22;31152;49.190;8.122;2023-06-14T11:11:09;28.20;44.40
30186;DHT22;31152;49.190;8.122;2023-06-14T11:13:44;28.20;45.20
30186;DHT22;31152;49.190;8.122;2023-06-14T11:16:15;28.10;45.40
30186;DHT22;31152;49.190;8.122;2023-06-14T11:18:44;28.00;44.40
30186;DHT22;31152;49.190;8.122;2023-06-14T11:21:14;27.70;45.00
30186;DHT22;31152;49.190;8.122;2023-06-14T11:23:44;27.70;45.00
30186;DHT22;31152;49.190;8.122;2023-06-14T11:26:15;27.40;43.60
30186;DHT22;31152;49.190;8.122;2023-06-14T11:28:41;27.60;45.30
30186;DHT22;31152;49.190;8.122;2023-06-14T11:31:12;27.80;44.70
30186;DHT22;31152;49.190;8.122;2023-06-14T11:33:41;27.80;43.30
30186;DHT22;31152;49.190;8.122;2023-06-14T11:36:10;27.40;44.10
30186;DHT22;31152;49.190;8.122;2023-06-14T11:38:38;27.10;43.60
30186;DHT22;31152;49.190;8.122;2023-06-14T11:41:05;27.00;43.10
30186;DHT22;31152;49.190;8.122;2023-06-14T11:43:32;27.00;44.10
30186;DHT22;31152;49.190;8.122;2023-06-14T11:46:01;27.00;44.60
30186;DHT22;31152;49.190;8.122;2023-06-14T11:48:41;26.90;45.30
30186;DHT22;31152;49.190;8.122;2023-06-14T11:51:12;27.00;45.10
30186;DHT22;31152;49.190;8.122;2023-06-14T11:53:39;27.10;43.90
30186;DHT22;31152;49.190;8.122;2023-06-14T11:56:06;27.20;44.60
30186;DHT22;31152;49.190;8.122;2023-06-14T11:58:33;27.30;44.40
30186;DHT22;31152;49.190;8.122;2023-06-14T12:01:00;27.40;44.20
30186;DHT22;31152;49.190;8.122;2023-06-14T12:03:27;27.60;44.40
30186;DHT22;31152;49.190;8.122;2023-06-14T12:06:08;27.50;43.20
30186;DHT22;31152;49.190;8.122;2023-06-14T12:08:36;27.70;43.70
30186;DHT22;31152;49.190;8.122;2023-06-14T12:11:13;27.90;42.80
30186;DHT22;31152;49.190;8.122;2023-06-14T12:13:42;27.90;42.40
30186;DHT22;31152;49.190;8.122;2023-06-14T12:16:11;27.90;42.00
30186;DHT22;31152;49.190;8.122;2023-06-14T12:18:39;27.90;42.40
30186;DHT22;31152;49.190;8.122;2023-06-14T12:21:07;28.10;42.00
30186;DHT22;31152;49.190;8.122;2023-06-14T12:23:47;28.20;41.80
30186;DHT22;31152;49.190;8.122;2023-06-14T12:26:19;28.30;42.10
30186;DHT22;31152;49.190;8.122;2023-06-14T12:28:47;27.90;42.30
30186;DHT22;31152;49.190;8.122;2023-06-14T12:31:15;27.70;43.40
30186;DHT22;31152;49.190;8.122;2023-06-14T12:33:46;27.90;43.80
30186;DHT22;31152;49.190;8.122;2023-06-14T12:36:19;28.10;42.70
30186;DHT22;31152;49.190;8.122;2023-06-14T12:38:46;28.30;42.70
30186;DHT22;31152;49.190;8.122;2023-06-14T12:41:13;28.40;42.90
30186;DHT22;31152;49.190;8.122;2023-06-14T12:43:42;28.40;42.80
30186;DHT22;31152;49.190;8.122;2023-06-14T12:46:09;28.40;43.00
30186;DHT22;31152;49.190;8.122;2023-06-14T12:48:36;28.40;42.30
30186;DHT22;31152;49.190;8.122;2023-06-14T12:51:05;28.40;43.40
30186;DHT22;31152;49.190;8.122;2023-06-14T12:53:32;28.40;43.10
30186;DHT22;31152;49.190;8.122;2023-06-14T12:55:59;28.40;42.90
30186;DHT22;31152;49.190;8.122;2023-06-14T12:58:27;28.40;43.20
30186;DHT22;31152;49.190;8.122;2023-06-14T13:00:53;28.60;43.10
30186;DHT22;31152;49.190;8.122;2023-06-14T13:03:21;28.20;43.00
30186;DHT22;31152;49.190;8.122;2023-06-14T13:05:48;28.00;44.20
30186;DHT22;31152;49.190;8.122;2023-06-14T13:08:15;28.20;44.00
30186;DHT22;31152;49.190;8.122;2023-06-14T13:10:42;28.00;43.50
30186;DHT22;31152;49.190;8.122;2023-06-14T13:13:09;27.90;44.60
30186;DHT22;31152;49.190;8.122;2023-06-14T13:15:37;27.80;44.80
30186;DHT22;31152;49.190;8.122;2023-06-14T13:18:07;27.90;44.30
30186;DHT22;31152;49.190;8.122;2023-06-14T13:20:34;28.10;44.20
30186;DHT22;31152;49.190;8.122;2023-06-14T13:23:03;28.20;43.80
30186;DHT22;31152;49.190;8.122;2023-06-14T13:25:32;28.40;43.10
30186;DHT22;31152;49.190;8.122;2023-06-14T13:27:59;28.60;42.80
30186;DHT22;31152;49.190;8.122;2023-06-14T13:30:26;28.80;42.30
30186;DHT22;31152;49.190;8.122;2023-06-14T13:32:53;28.90;41.70
30186;DHT22;31152;49.190;8.122;2023-06-14T13:35:20;28.90;42.40
30186;DHT22;31152;49.190;8.122;2023-06-14T13:37:47;29.10;42.30
30186;DHT22;31152;49.190;8.122;2023-06-14T13:40:16;28.90;42.30
30186;DHT22;31152;49.190;8.122;2023-06-14T13:42:43;28.70;42.70
30186;DHT22;31152;49.190;8.122;2023-06-14T13:45:11;28.60;43.30
30186;DHT22;31152;49.190;8.122;2023-06-14T13:47:38;28.70;43.20
30186;DHT22;31152;49.190;8.122;2023-06-14T13:50:06;28.60;42.90
30186;DHT22;31152;49.190;8.122;2023-06-14T13:52:33;28.40;42.70
30186;DHT22;31152;49.190;8.122;2023-06-14T13:55:00;28.10;43.30
30186;DHT22;31152;49.190;8.122;2023-06-14T13:57:27;28.20;43.60
30186;DHT22;31152;49.190;8.122;2023-06-14T13:59:54;28.40;43.20
30186;DHT22;31152;49.190;8.122;2023-06-14T14:02:22;28.50;42.60
30186;DHT22;31152;49.190;8.122;2023-06-14T14:04:51;28.70;42.20
30186;DHT22;31152;49.190;8.122;2023-06-14T14:07:22;28.90;42.30
30186;DHT22;31152;49.190;8.122;2023-06-14T14:09:50;28.90;42.10
30186;DHT22;31152;49.190;8.122;2023-06-14T14:12:16;29.00;42.50
30186;DHT22;31152;49.190;8.122;2023-06-14T14:14:45;29.00;42.50
30186;DHT22;31152;49.190;8.122;2023-06-14T14:17:12;28.80;42.10
30186;DHT22;31152;49.190;8.122;2023-06-14T14:19:39;28.50;42.50
30186;DHT22;31152;49.190;8.122;2023-06-14T14:22:06;28.50;43.50
30186;DHT22;31152;49.190;8.122;2023-06-14T14:24:33;28.70;42.90
30186;DHT22;31152;49.190;8.122;2023-06-14T14:27:00;28.80;42.90
30186;DHT22;31152;49.190;8.122;2023-06-14T14:29:27;28.80;42.90
30186;DHT22;31152;49.190;8.122;2023-06-14T14:31:56;28.50;42.70
30186;DHT22;31152;49.190;8.122;2023-06-14T14:34:24;28.60;43.60
30186;DHT22;31152;49.190;8.122;2023-06-14T14:36:51;28.60;43.00
30186;DHT22;31152;49.190;8.122;2023-06-14T14:39:20;28.50;43.50
30186;DHT22;31152;49.190;8.122;2023-06-14T14:41:47;28.60;43.20
30186;DHT22;31152;49.190;8.122;2023-06-14T14:44:14;28.60;42.80
30186;DHT22;31152;49.190;8.122;2023-06-14T14:46:41;28.60;42.80
30186;DHT22;31152;49.190;8.122;2023-06-14T14:49:10;28.50;43.00
30186;DHT22;31152;49.190;8.122;2023-06-14T14:51:37;28.50;43.10
30186;DHT22;31152;49.190;8.122;2023-06-14T14:54:05;28.70;43.30
30186;DHT22;31152;49.190;8.122;2023-06-14T14:56:32;28.70;43.30
30186;DHT22;31152;49.190;8.122;2023-06-14T14:58:59;28.90;43.10
30186;DHT22;31152;49.190;8.122;2023-06-14T15:01:28;28.90;43.40
30186;DHT22;31152;49.190;8.122;2023-06-14T15:03:57;28.90;45.00
30186;DHT22;31152;49.190;8.122;2023-06-14T15:06:26;28.90;45.40
30186;DHT22;31152;49.190;8.122;2023-06-14T15:08:53;28.70;44.30
30186;DHT22;31152;49.190;8.122;2023-06-14T15:11:20;28.40;44.10
30186;DHT22;31152;49.190;8.122;2023-06-14T15:13:49;28.40;44.30
30186;DHT22;31152;49.190;8.122;2023-06-14T15:16:16;28.20;44.10
30186;DHT22;31152;49.190;8.122;2023-06-14T15:18:43;28.20;44.70
30186;DHT22;31152;49.190;8.122;2023-06-14T15:21:11;28.10;45.40
30186;DHT22;31152;49.190;8.122;2023-06-14T15:23:38;28.10;45.30
30186;DHT22;31152;49.190;8.122;2023-06-14T15:26:05;28.00;45.10
30186;DHT22;31152;49.190;8.122;2023-06-14T15:28:31;27.80;45.30
30186;DHT22;31152;49.190;8.122;2023-06-14T15:30:59;27.70;45.80
30186;DHT22;31152;49.190;8.122;2023-06-14T15:33:29;27.60;45.80
30186;DHT22;31152;49.190;8.122;2023-06-14T15:35:56;27.60;45.10
30186;DHT22;31152;49.190;8.122;2023-06-14T15:38:23;27.70;44.30
30186;DHT22;31152;49.190;8.122;2023-06-14T15:40:49;27.90;44.30
30186;DHT22;31152;49.190;8.122;2023-06-14T15:43:18;27.90;43.60
30186;DHT22;31152;49.190;8.122;2023-06-14T15:45:48;28.10;45.40
30186;DHT22;31152;49.190;8.122;2023-06-14T15:48:17;28.10;44.30
30186;DHT22;31152;49.190;8.122;2023-06-14T15:50:44;28.10;44.40
30186;DHT22;31152;49.190;8.122;2023-06-14T15:53:12;28.20;43.40